Time;durP1;ratioP1;P1;durP2;ratioP2;P2;SDS_P1;SDS_P2;PMS_P1;PMS_P2;Temp;Humidity;BMP_temperature;BMP_pressure;BME280_temperature;BME280_humidity;BME280_pressure;Samples;Min_cycle;Max_cycle;Signal;HPM_P1;HPM_P2
2023/03/09 00:04:46;;;;;;;43.20;32.72;;;;;;;2.61;100.00;97580.72;10581892;28;20047;-73
2023/03/09 00:09:48;;;;;;;47.33;35.03;;;;;;;2.89;100.00;97581.34;10582365;28;20488;-73
2023/03/09 00:14:53;;;;;;;44.45;34.72;;;;;;;3.08;100.00;97578.00;10583312;28;20077;-73
2023/03/09 00:20:00;;;;;;;40.13;32.60;;;;;;;2.97;100.00;97563.72;10581414;28;20043;-73
2023/03/09 00:25:02;;;;;;;;;;;;;;;2.92;100.00;97550.09;10583215;28;20047;-73
2023/03/09 00:30:04;;;;;;;46.17;32.50;;;;;;;2.74;100.00;97536.09;10583705;28;19920;-73
2023/03/09 00:35:08;;;;;;;47.75;33.65;;;;;;;2.84;100.00;97539.19;10581768;28;20066;-73
2023/03/09 00:40:10;;;;;;;45.28;33.58;;;;;;;3.10;100.00;97532.06;10581525;28;20043;-73
2023/03/09 00:45:13;;;;;;;40.88;32.58;;;;;;;2.84;100.00;97523.63;10563168;28;20067;-73
2023/03/09 00:50:14;;;;;;;38.53;30.92;;;;;;;2.90;100.00;97519.91;10582781;28;20089;-73
2023/03/09 00:55:16;;;;;;;37.35;31.23;;;;;;;3.08;100.00;97518.31;10581335;28;20523;-73
2023/03/09 01:00:18;;;;;;;37.00;29.40;;;;;;;2.84;100.00;97523.63;10584248;28;20067;-73
2023/03/09 01:05:20;;;;;;;35.72;30.23;;;;;;;2.70;100.00;97512.94;10570601;28;20048;-73
2023/03/09 01:10:22;;;;;;;35.85;29.27;;;;;;;2.62;100.00;97505.47;10590935;28;20050;-72
2023/03/09 01:15:25;;;;;;;41.78;31.60;;;;;;;2.66;100.00;97496.66;10571265;28;20521;-73
2023/03/09 01:20:26;;;;;;;39.08;29.80;;;;;;;2.86;100.00;97498.44;10569815;28;20039;-72
2023/03/09 01:25:28;;;;;;;42.13;31.88;;;;;;;2.66;100.00;97503.63;10589093;28;20045;-72
2023/03/09 01:30:31;;;;;;;41.00;31.25;;;;;;;2.63;100.00;97489.00;10588068;28;20043;-72
2023/03/09 01:35:33;;;;;;;35.97;30.23;;;;;;;2.62;100.00;97484.72;10589307;28;20051;-72
2023/03/09 01:40:36;;;;;;;41.42;29.02;;;;;;;2.72;100.00;97482.59;10587997;28;20039;-72
2023/03/09 01:45:37;;;;;;;39.13;29.95;;;;;;;2.76;100.00;97473.78;10585677;28;20047;-72
2023/03/09 01:50:40;;;;;;;37.38;29.40;;;;;;;2.74;100.00;97457.44;10586863;28;20036;-72
2023/03/09 01:55:46;;;;;;;33.60;28.20;;;;;;;2.90;100.00;97466.28;10568673;28;20100;-72
2023/03/09 02:00:53;;;;;;;32.40;27.02;;;;;;;2.91;100.00;97457.56;10566807;28;20131;-72
2023/03/09 02:06:15;;;;;;;32.38;29.05;;;;;;;2.77;100.00;97440.00;10567150;28;20066;-72
2023/03/09 02:11:20;;;;;;;31.90;26.67;;;;;;;2.68;100.00;97431.75;10588499;28;20062;-72
2023/03/09 02:16:22;;;;;;;32.95;27.75;;;;;;;2.86;100.00;97419.75;10588053;28;20056;-72
2023/03/09 02:21:50;;;;;;;39.17;29.27;;;;;;;2.70;100.00;97409.19;10568046;28;20497;-72
2023/03/09 02:26:59;;;;;;;32.03;27.05;;;;;;;2.78;100.00;97407.94;10567455;28;20048;-72
2023/03/09 02:32:02;;;;;;;36.08;27.98;;;;;;;2.94;100.00;97402.13;10568334;28;20043;-73
2023/03/09 02:37:21;;;;;;;32.47;26.98;;;;;;;2.84;100.00;97386.09;10585531;28;20089;-73
2023/03/09 02:42:25;;;;;;;30.83;26.77;;;;;;;2.77;100.00;97376.91;10567102;28;20042;-73
2023/03/09 02:47:27;;;;;;;39.60;29.52;;;;;;;2.76;100.00;97372.63;10566140;28;20493;-73
2023/03/09 02:52:29;;;;;;;39.70;29.60;;;;;;;3.02;100.00;97372.34;10565705;28;20071;-73
2023/03/09 02:57:31;;;;;;;34.58;27.88;;;;;;;2.97;100.00;97363.91;10584130;28;20085;-73
2023/03/09 03:02:33;;;;;;;33.47;27.95;;;;;;;2.80;100.00;97363.81;10586196;28;20032;-72
2023/03/09 03:07:35;;;;;;;30.58;27.33;;;;;;;2.93;100.00;97354.56;10567410;28;20068;-73
2023/03/09 03:12:37;;;;;;;33.10;27.45;;;;;;;2.78;100.00;97342.25;10565847;28;20447;-73
2023/03/09 03:17:39;;;;;;;47.30;30.95;;;;;;;2.67;100.00;97357.44;10583790;28;20527;-73
2023/03/09 03:22:43;;;;;;;49.03;32.17;;;;;;;2.77;100.00;97353.53;10576126;22;20043;-71
2023/03/09 03:27:46;;;;;;;46.08;31.20;;;;;;;2.82;100.00;97351.59;10564736;28;20093;-71
2023/03/09 03:32:52;;;;;;;51.35;34.33;;;;;;;2.74;100.00;97340.69;10564668;28;20042;-71
2023/03/09 03:37:57;;;;;;;56.95;32.80;;;;;;;2.68;100.00;97348.75;10564660;28;20504;-71
2023/03/09 03:43:00;;;;;;;44.30;27.77;;;;;;;2.72;100.00;97351.16;10564707;28;20412;-71
2023/03/09 03:48:03;;;;;;;45.60;29.23;;;;;;;2.59;100.00;97362.13;10564231;28;20047;-71
2023/03/09 03:53:07;;;;;;;49.63;32.08;;;;;;;2.59;100.00;97362.97;10564164;28;20043;-72
2023/03/09 03:58:09;;;;;;;59.60;33.10;;;;;;;2.56;100.00;97375.22;10564374;28;20044;-71
2023/03/09 04:03:13;;;;;;;69.18;36.20;;;;;;;2.40;100.00;97385.38;10581968;28;20027;-72
2023/03/09 04:08:18;;;;;;;64.13;36.75;;;;;;;2.43;100.00;97380.91;10563887;28;20086;-71
2023/03/09 04:13:22;;;;;;;63.67;34.90;;;;;;;2.28;100.00;97382.38;10563349;28;20040;-71
2023/03/09 04:18:25;;;;;;;47.22;31.15;;;;;;;2.44;100.00;97374.00;10564458;28;20134;-71
2023/03/09 04:23:28;;;;;;;51.65;31.98;;;;;;;2.43;100.00;97367.94;10562725;28;20040;-72
2023/03/09 04:28:33;;;;;;;48.72;31.00;;;;;;;2.22;100.00;97366.25;10563633;28;20048;-71
2023/03/09 04:33:36;;;;;;;44.00;27.77;;;;;;;2.29;100.00;97367.66;10563501;28;20043;-71
2023/03/09 04:38:39;;;;;;;33.22;26.10;;;;;;;2.25;100.00;97364.34;10571002;28;20047;-71
2023/03/09 04:43:42;;;;;;;29.73;23.83;;;;;;;2.15;100.00;97365.66;10570586;28;20035;-71
2023/03/09 04:48:44;;;;;;;27.92;23.88;;;;;;;2.19;100.00;97362.03;10570765;28;20051;-71
2023/03/09 04:53:46;;;;;;;24.10;21.35;;;;;;;2.17;100.00;97363.84;10570932;28;20044;-71
2023/03/09 04:58:52;;;;;;;27.77;22.27;;;;;;;2.17;100.00;97363.84;10570343;28;20047;-71
2023/03/09 05:03:58;;;;;;;23.65;19.90;;;;;;;2.07;100.00;97364.28;10570517;28;20055;-71
2023/03/09 05:09:04;;;;;;;22.23;19.92;;;;;;;2.02;100.00;97367.88;10588891;28;20040;-71
2023/03/09 05:14:07;;;;;;;28.20;22.15;;;;;;;1.95;100.00;97365.63;10570142;28;20065;-72
2023/03/09 05:19:10;;;;;;;24.27;20.98;;;;;;;2.06;100.00;97350.47;10569976;28;20557;-71
2023/03/09 05:24:15;;;;;;;22.15;20.02;;;;;;;2.28;100.00;97360.81;10570145;28;20123;-71
2023/03/09 05:29:18;;;;;;;21.95;19.75;;;;;;;2.57;100.00;97363.91;10569849;28;20047;-71
2023/03/09 05:34:20;;;;;;;23.00;20.73;;;;;;;2.41;100.00;97367.16;10588149;28;20085;-72
2023/03/09 05:39:22;;;;;;;21.20;19.10;;;;;;;2.26;100.00;97368.66;10569738;28;20105;-72
2023/03/09 05:44:24;;;;;;;21.88;19.65;;;;;;;2.34;100.00;97365.72;10569748;28;20048;-72
2023/03/09 05:49:27;;;;;;;23.42;21.15;;;;;;;2.47;100.00;97366.91;10569285;28;20093;-72
2023/03/09 05:54:29;;;;;;;22.23;20.02;;;;;;;2.30;100.00;97358.97;10567938;28;20043;-72
2023/03/09 05:59:35;;;;;;;22.98;20.67;;;;;;;2.20;100.00;97358.53;10568460;28;20075;-72
2023/03/09 06:04:37;;;;;;;22.02;19.63;;;;;;;2.35;100.00;97372.63;10568742;28;20520;-72
2023/03/09 06:09:43;;;;;;;25.35;21.58;;;;;;;2.51;100.00;97378.00;10568581;28;20073;-71
2023/03/09 06:14:52;;;;;;;22.52;20.40;;;;;;;2.62;100.00;97385.34;10568484;28;20584;-72
2023/03/09 06:19:56;;;;;;;21.75;19.55;;;;;;;2.50;100.00;97391.88;10552161;28;20050;-72
2023/03/09 06:24:58;;;;;;;22.50;20.50;;;;;;;2.55;100.00;97399.47;10568595;28;20040;-72
2023/03/09 06:30:04;;;;;;;20.73;18.80;;;;;;;2.52;100.00;97408.19;10585986;28;20031;-71
2023/03/09 06:35:06;;;;;;;21.65;19.55;;;;;;;2.63;100.00;97423.31;10567510;28;20071;-71
2023/03/09 06:40:12;;;;;;;23.88;21.20;;;;;;;2.49;100.00;97442.06;10567220;28;20046;-71
2023/03/09 06:45:14;;;;;;;29.05;23.33;;;;;;;2.52;100.00;97463.53;10567336;28;20077;-71
2023/03/09 06:50:16;;;;;;;35.53;25.15;;;;;;;2.56;100.00;97484.97;10585505;28;20118;-71
2023/03/09 06:55:20;;;;;;;28.48;24.55;;;;;;;2.46;100.00;97494.88;10568222;28;20493;-71
2023/03/09 07:00:29;;;;;;;23.08;20.40;;;;;;;2.36;100.00;97500.47;10566585;28;20047;-72
2023/03/09 07:05:35;;;;;;;22.77;20.67;;;;;;;2.09;100.00;97523.97;10568716;28;20141;-72
2023/03/09 07:10:37;;;;;;;21.98;19.60;;;;;;;2.17;100.00;97546.97;10585072;28;20115;-72
2023/03/09 07:15:39;;;;;;;20.08;18.33;;;;;;;2.14;100.00;97567.84;10585057;28;20067;-71
2023/03/09 07:20:41;;;;;;;17.52;15.80;;;;;;;2.12;100.00;97578.25;10585623;28;20043;-71
2023/03/09 07:25:43;;;;;;;15.93;14.43;;;;;;;2.07;100.00;97606.09;10585644;28;20050;-71
2023/03/09 07:30:45;;;;;;;14.57;13.40;;;;;;;2.17;100.00;97628.19;10566842;28;20134;-72
2023/03/09 07:35:46;;;;;;;11.40;10.40;;;;;;;2.24;100.00;97655.56;10585019;28;20036;-71
2023/03/09 07:40:48;;;;;;;10.35;9.55;;;;;;;2.01;100.00;97661.56;10549496;28;20039;-71
2023/03/09 07:45:50;;;;;;;8.90;8.20;;;;;;;1.97;100.00;97685.06;10584313;28;20039;-72
2023/03/09 07:50:59;;;;;;;9.02;8.32;;;;;;;1.85;100.00;97716.56;10567258;28;20146;-71
2023/03/09 07:56:03;;;;;;;9.35;8.63;;;;;;;1.88;100.00;97747.56;10566992;28;20047;-71
2023/03/09 08:01:11;;;;;;;9.60;8.80;;;;;;;1.92;100.00;97769.88;10585643;28;20042;-71
2023/03/09 08:06:13;;;;;;;6.55;6.03;;;;;;;1.98;100.00;97764.47;10585395;28;20047;-73
2023/03/09 08:11:15;;;;;;;7.55;6.85;;;;;;;1.74;100.00;97774.75;10591749;28;20521;-72
2023/03/09 08:16:17;;;;;;;7.30;6.70;;;;;;;1.82;100.00;97792.66;10592757;28;20055;-71
2023/03/09 08:21:19;;;;;;;7.93;6.75;;;;;;;2.01;100.00;97819.63;10591592;28;20040;-72
2023/03/09 08:26:21;;;;;;;9.52;8.63;;;;;;;1.99;100.00;97830.94;10573162;28;20044;-71
2023/03/09 08:31:27;;;;;;;9.30;8.57;;;;;;;2.05;100.00;97842.88;10572985;28;20488;-70
2023/03/09 08:36:29;;;;;;;10.55;9.75;;;;;;;1.79;100.00;97865.25;10590601;28;20040;-72
2023/03/09 08:41:30;;;;;;;11.02;10.15;;;;;;;1.93;100.00;97881.22;10590867;28;20036;-72
2023/03/09 08:46:32;;;;;;;11.60;10.60;;;;;;;1.73;100.00;97892.22;10590365;28;20070;-71
2023/03/09 08:51:34;;;;;;;12.32;11.23;;;;;;;1.83;100.00;97902.28;10590158;28;20404;-72
2023/03/09 08:56:36;;;;;;;10.55;9.68;;;;;;;1.84;100.00;97915.19;10589821;28;20526;-72
2023/03/09 09:01:37;;;;;;;11.00;10.10;;;;;;;1.88;100.00;97924.56;10571075;28;20542;-71
2023/03/09 09:06:39;;;;;;;12.80;11.75;;;;;;;1.97;100.00;97939.81;10571224;28;20051;-71
2023/03/09 09:11:41;;;;;;;12.88;11.77;;;;;;;2.01;100.00;97964.75;10588935;28;20123;-71
2023/03/09 09:16:43;;;;;;;11.45;10.45;;;;;;;2.30;100.00;97973.34;10588552;28;20108;-72
2023/03/09 09:21:44;;;;;;;10.98;10.02;;;;;;;2.42;100.00;97980.75;10588372;28;20093;-71
2023/03/09 09:26:46;;;;;;;11.45;10.55;;;;;;;2.27;100.00;97974.31;10554943;28;20134;-71
2023/03/09 09:31:48;;;;;;;11.52;10.40;;;;;;;2.18;100.00;97979.78;10588822;28;20067;-72
2023/03/09 09:36:50;;;;;;;12.18;11.18;;;;;;;2.27;100.00;97996.81;10570692;28;20527;-72
2023/03/09 09:41:56;;;;;;;12.32;11.32;;;;;;;2.36;100.00;98009.47;10569701;28;20053;-72
2023/03/09 09:47:05;;;;;;;13.38;12.05;;;;;;;2.45;100.00;98021.31;10552722;28;20047;-73
2023/03/09 09:52:18;;;;;;;11.05;10.15;;;;;;;2.68;100.00;98036.97;10588337;28;20477;-71
2023/03/09 09:57:20;;;;;;;10.70;9.80;;;;;;;2.84;100.00;98042.53;10569295;28;20043;-72
2023/03/09 10:02:28;;;;;;;11.40;10.32;;;;;;;2.93;100.00;98047.44;10568767;28;20584;-71
2023/03/09 10:07:36;;;;;;;9.85;9.05;;;;;;;2.91;100.00;98040.56;10586866;28;20067;-71
2023/03/09 10:12:39;;;;;;;9.45;8.65;;;;;;;3.18;100.00;98047.44;10586254;28;20040;-71
2023/03/09 10:17:53;;;;;;;10.50;9.60;;;;;;;3.28;100.00;98042.81;10587761;28;20071;-72
2023/03/09 10:22:56;;;;;;;10.77;9.80;;;;;;;3.26;100.00;98060.16;10567203;28;20065;-74
2023/03/09 10:28:12;;;;;;;10.75;9.85;;;;;;;3.35;100.00;98065.03;10585820;28;20051;-71
2023/03/09 10:33:48;;;;;;;10.55;9.65;;;;;;;3.67;100.00;98061.31;10585625;28;20039;-71
2023/03/09 10:38:54;;;;;;;9.97;8.93;;;;;;;3.72;100.00;98062.03;10567087;28;20436;-71
2023/03/09 10:43:58;;;;;;;10.20;9.40;;;;;;;3.46;100.00;98072.50;10585166;28;20070;-72
2023/03/09 10:49:27;;;;;;;9.05;8.25;;;;;;;3.43;100.00;98094.22;10585552;28;20113;-73
2023/03/09 10:54:41;;;;;;;10.48;9.68;;;;;;;3.38;100.00;98079.69;10582470;28;20105;-71
2023/03/09 10:59:54;;;;;;;11.68;10.75;;;;;;;3.16;100.00;98085.59;10584310;28;20067;-73
2023/03/09 11:04:56;;;;;;;11.75;10.65;;;;;;;3.22;100.00;98102.72;10549547;28;20040;-72
2023/03/09 11:10:02;;;;;;;12.52;11.43;;;;;;;3.33;100.00;98105.81;10584714;28;20040;-73
2023/03/09 11:15:34;;;;;;;12.40;11.30;;;;;;;3.49;100.00;98095.75;10584293;28;20036;-72
2023/03/09 11:20:38;;;;;;;12.65;11.55;;;;;;;3.64;100.00;98105.63;10583977;28;20039;-73
2023/03/09 11:26:16;;;;;;;11.13;10.23;;;;;;;3.52;100.00;98119.03;10583929;28;20114;-71
2023/03/09 11:31:22;;;;;;;13.20;12.20;;;;;;;3.53;100.00;98124.16;10583029;28;20488;-71
2023/03/09 11:36:46;;;;;;;12.23;11.20;;;;;;;3.76;100.00;98115.59;10583220;28;20082;-73
2023/03/09 11:41:53;;;;;;;11.63;10.73;;;;;;;3.77;100.00;98112.09;10564251;28;20044;-72
2023/03/09 11:47:02;;;;;;;13.15;12.25;;;;;;;3.84;100.00;98119.66;10583056;28;20112;-73
2023/03/09 11:52:07;;;;;;;14.00;12.75;;;;;;;3.68;100.00;98127.16;10583483;28;20036;-74
2023/03/09 11:57:14;;;;;;;14.00;12.77;;;;;;;3.78;100.00;98124.16;10564389;28;20493;-72
2023/03/09 12:02:56;;;;;;;13.40;12.25;;;;;;;3.87;100.00;98115.22;10583071;28;20043;-73
2023/03/09 12:08:03;;;;;;;11.63;10.73;;;;;;;3.88;100.00;98118.66;10563948;28;20052;-73
2023/03/09 12:13:11;;;;;;;13.32;12.32;;;;;;;3.93;100.00;98133.16;10583521;28;20050;-72
2023/03/09 12:18:36;;;;;;;13.43;12.23;;;;;;;3.84;100.00;98130.91;10564054;28;20058;-72
2023/03/09 12:23:39;;;;;;;13.68;12.63;;;;;;;3.88;100.00;98135.09;10564227;28;20035;-72
2023/03/09 12:28:41;;;;;;;13.63;12.52;;;;;;;3.94;100.00;98137.50;10563832;28;20051;-72
2023/03/09 12:33:45;;;;;;;15.13;13.98;;;;;;;3.88;100.00;98134.25;10576389;28;20044;-72
2023/03/09 12:39:22;;;;;;;14.88;13.68;;;;;;;3.78;100.00;98146.72;10563321;28;20389;-72
2023/03/09 12:44:57;;;;;;;12.95;11.95;;;;;;;3.89;100.00;98141.97;10581539;28;20035;-73
2023/03/09 12:50:00;;;;;;;13.18;12.23;;;;;;;3.86;100.00;98136.91;10568031;28;20047;-73
2023/03/09 12:55:11;;;;;;;15.02;13.82;;;;;;;3.88;100.00;98142.88;10558047;28;20408;-73
2023/03/09 13:00:20;;;;;;;14.68;13.48;;;;;;;3.82;100.00;98150.91;10579217;28;20063;-72
2023/03/09 13:05:25;;;;;;;14.23;13.20;;;;;;;4.14;100.00;98141.13;10580082;28;20028;-74
2023/03/09 13:10:31;;;;;;;13.13;12.23;;;;;;;4.08;100.00;98157.78;10564177;28;20054;-73
2023/03/09 13:15:33;;;;;;;14.63;13.52;;;;;;;3.98;100.00;98152.03;10589555;28;20539;-73
2023/03/09 13:20:37;;;;;;;14.07;13.05;;;;;;;4.28;100.00;98149.25;10588141;28;20089;-72
2023/03/09 13:25:52;;;;;;;13.95;12.85;;;;;;;4.40;100.00;98150.56;10587645;28;20071;-72
2023/03/09 13:31:06;;;;;;;13.40;12.48;;;;;;;4.45;100.00;98149.50;10586394;28;20385;-74
2023/03/09 13:36:19;;;;;;;11.63;10.73;;;;;;;4.34;100.00;98164.66;10584387;28;20461;-72
2023/03/09 13:41:25;;;;;;;11.13;10.23;;;;;;;4.84;100.00;98169.72;10587259;28;20393;-72
2023/03/09 13:46:31;;;;;;;12.40;11.50;;;;;;;4.64;100.00;98167.00;10587400;28;20489;-72
2023/03/09 13:51:49;;;;;;;14.43;13.13;;;;;;;4.47;100.00;98165.03;10587057;28;20051;-73
2023/03/09 13:57:15;;;;;;;13.57;12.65;;;;;;;4.59;100.00;98164.59;10569559;28;20050;-71
2023/03/09 14:02:17;;;;;;;12.88;11.88;;;;;;;4.38;100.00;98171.41;10572173;28;20054;-73
2023/03/09 14:07:25;;;;;;;14.82;13.82;;;;;;;4.65;100.00;98164.38;10585265;28;20142;-72
2023/03/09 14:12:31;;;;;;;14.18;12.98;;;;;;;4.65;100.00;98164.38;10586178;28;20031;-72
2023/03/09 14:17:35;;;;;;;12.25;11.45;;;;;;;4.67;100.00;98180.78;10586792;28;20058;-72
2023/03/09 14:22:36;;;;;;;15.38;14.15;;;;;;;4.39;100.00;98180.94;10566980;28;20040;-72
2023/03/09 14:27:38;;;;;;;13.68;12.48;;;;;;;4.66;100.00;98175.63;10585488;28;20051;-72
2023/03/09 14:33:05;;;;;;;13.27;12.02;;;;;;;4.47;100.00;98178.91;10585212;28;20047;-72
2023/03/09 14:38:19;;;;;;;14.95;13.07;;;;;;;4.66;100.00;98171.28;10549892;28;20419;-72
2023/03/09 14:43:38;;;;;;;15.93;14.73;;;;;;;4.57;100.00;98175.97;10584374;28;20036;-72
2023/03/09 14:48:40;;;;;;;17.67;16.20;;;;;;;4.41;100.00;98179.13;10584801;28;20054;-72
2023/03/09 14:54:02;;;;;;;14.52;13.52;;;;;;;4.82;100.00;98179.31;10585811;28;20115;-72
2023/03/09 14:59:15;;;;;;;14.85;13.73;;;;;;;4.72;100.00;98183.19;10584848;28;20048;-73
2023/03/09 15:04:19;;;;;;;14.18;13.18;;;;;;;4.88;100.00;98176.50;10584479;28;20118;-73
2023/03/09 15:09:21;;;;;;;13.65;12.65;;;;;;;4.76;100.00;98188.22;10566280;28;20451;-73
2023/03/09 15:14:47;;;;;;;13.40;12.43;;;;;;;4.89;100.00;98185.16;10586095;28;20415;-72
2023/03/09 15:19:50;;;;;;;13.35;12.45;;;;;;;4.95;100.00;98167.53;10581289;22;20463;-73
2023/03/09 15:24:51;;;;;;;14.70;13.50;;;;;;;4.81;100.00;98194.09;10584130;28;20046;-74
2023/03/09 15:29:53;;;;;;;13.00;12.10;;;;;;;5.02;100.00;98189.84;10585975;28;20143;-74
2023/03/09 15:34:55;;;;;;;13.02;12.02;;;;;;;5.11;100.00;98193.84;10583582;28;20480;-73
2023/03/09 15:39:57;;;;;;;13.65;12.63;;;;;;;4.84;100.00;98187.09;10564903;28;20408;-74
2023/03/09 15:44:58;;;;;;;23.38;21.65;;;;;;;4.53;100.00;98181.28;10564740;28;20043;-75
2023/03/09 15:50:06;;;;;;;16.63;15.48;;;;;;;4.50;100.00;98181.38;10567253;28;20036;-77
2023/03/09 15:55:12;;;;;;;18.25;16.75;;;;;;;4.43;100.00;98179.94;10579661;27;20040;-75
2023/03/09 16:00:15;;;;;;;22.17;20.38;;;;;;;4.46;100.00;98199.78;10579328;28;20244;-75
2023/03/09 16:05:17;;;;;;;17.83;16.52;;;;;;;4.63;100.00;98188.75;10560613;28;20039;-76
2023/03/09 16:10:19;;;;;;;18.35;16.73;;;;;;;4.95;100.00;98184.91;10582517;28;20055;-72
2023/03/09 16:15:21;;;;;;;17.48;15.80;;;;;;;5.10;100.00;98196.50;10565767;28;20093;-74
2023/03/09 16:20:23;;;;;;;16.58;15.38;;;;;;;5.05;100.00;98194.94;10581999;28;20043;-73
2023/03/09 16:25:25;;;;;;;16.10;14.90;;;;;;;4.83;100.00;98206.22;10581962;28;20042;-74
2023/03/09 16:30:28;;;;;;;15.52;14.43;;;;;;;4.76;100.00;98216.00;10584220;28;20047;-74
2023/03/09 16:35:30;;;;;;;15.30;14.20;;;;;;;4.85;100.00;98220.88;10596738;27;20049;-74
2023/03/09 16:40:34;;;;;;;16.20;15.00;;;;;;;4.69;100.00;98218.00;10573910;28;20047;-74
2023/03/09 16:45:36;;;;;;;17.35;16.05;;;;;;;4.58;100.00;98232.31;10573744;28;20042;-74
2023/03/09 16:50:39;;;;;;;17.80;16.40;;;;;;;4.51;100.00;98221.25;10589203;28;20075;-74
2023/03/09 16:55:41;;;;;;;17.48;16.17;;;;;;;4.62;100.00;98229.53;10594700;28;20141;-74
2023/03/09 17:00:43;;;;;;;16.85;15.65;;;;;;;4.62;100.00;98237.34;10570748;28;20411;-72
2023/03/09 17:05:45;;;;;;;18.70;17.20;;;;;;;4.76;100.00;98231.63;10589949;28;20050;-74
2023/03/09 17:10:47;;;;;;;15.27;14.07;;;;;;;4.64;100.00;98232.91;10589784;28;20063;-74
2023/03/09 17:15:49;;;;;;;19.08;17.63;;;;;;;4.69;100.00;98227.53;10587384;28;20040;-75
2023/03/09 17:20:51;;;;;;;17.60;16.13;;;;;;;4.62;100.00;98229.53;10589790;28;20454;-74
2023/03/09 17:25:53;;;;;;;17.15;15.55;;;;;;;4.59;100.00;98227.03;10585892;28;20396;-73
2023/03/09 17:30:55;;;;;;;19.50;17.80;;;;;;;4.67;100.00;98229.38;10587257;28;20466;-74
2023/03/09 17:35:58;;;;;;;18.85;17.45;;;;;;;4.65;100.00;98225.97;10570011;28;20035;-74
2023/03/09 17:41:02;;;;;;;21.30;19.65;;;;;;;4.68;100.00;98236.25;10571537;28;20516;-74
2023/03/09 17:46:05;;;;;;;20.02;18.60;;;;;;;4.92;100.00;98229.31;10569250;28;20044;-74
2023/03/09 17:51:12;;;;;;;17.98;16.73;;;;;;;4.67;100.00;98218.97;10586813;28;20039;-73
2023/03/09 17:56:16;;;;;;;20.88;18.90;;;;;;;4.58;100.00;98224.50;10587922;28;20395;-73
2023/03/09 18:01:20;;;;;;;23.30;21.38;;;;;;;4.72;100.00;98227.44;10587370;28;20039;-73
2023/03/09 18:06:28;;;;;;;19.58;18.08;;;;;;;4.50;100.00;98223.00;10586371;28;20455;-73
2023/03/09 18:11:32;;;;;;;20.58;18.67;;;;;;;4.95;100.00;98232.63;10587167;27;20040;-76
2023/03/09 18:16:34;;;;;;;20.25;18.55;;;;;;;4.70;100.00;98224.06;10595825;27;20047;-75
2023/03/09 18:21:37;;;;;;;22.30;20.42;;;;;;;4.54;100.00;98214.19;10612451;27;20045;-75
2023/03/09 18:26:40;;;;;;;23.20;21.10;;;;;;;4.73;100.00;98209.16;10588929;28;20130;-74
2023/03/09 18:31:41;;;;;;;26.95;24.40;;;;;;;4.75;100.00;98209.97;10567301;28;20038;-74
2023/03/09 18:36:43;;;;;;;25.98;23.60;;;;;;;4.88;100.00;98194.72;10585421;28;20043;-74
2023/03/09 18:41:45;;;;;;;23.65;21.95;;;;;;;5.04;100.00;98177.59;10596554;27;20039;-75
2023/03/09 18:46:46;;;;;;;24.08;21.98;;;;;;;4.89;100.00;98165.19;10600490;27;20397;-74
2023/03/09 18:51:48;;;;;;;22.33;20.63;;;;;;;4.88;100.00;98160.88;10623227;27;20397;-73
2023/03/09 18:56:50;;;;;;;23.27;21.50;;;;;;;4.89;100.00;98162.56;10620175;27;20043;-73
2023/03/09 19:01:52;;;;;;;24.13;22.23;;;;;;;4.83;100.00;98156.78;10585024;28;20109;-75
2023/03/09 19:06:53;;;;;;;25.95;23.77;;;;;;;4.69;100.00;98160.75;10585426;28;20039;-75
2023/03/09 19:11:55;;;;;;;25.17;23.27;;;;;;;4.70;100.00;98146.81;10583927;28;20040;-75
2023/03/09 19:16:57;;;;;;;25.73;23.52;;;;;;;4.99;100.00;98150.88;10583750;28;20097;-75
2023/03/09 19:21:58;;;;;;;24.65;22.70;;;;;;;4.94;100.00;98138.97;10591602;27;20034;-74
2023/03/09 19:27:00;;;;;;;23.48;21.48;;;;;;;4.86;100.00;98117.59;10597824;27;20043;-75
2023/03/09 19:32:02;;;;;;;23.88;21.98;;;;;;;4.97;100.00;98108.44;10570737;28;20039;-76
2023/03/09 19:37:04;;;;;;;26.00;23.73;;;;;;;4.86;100.00;98107.19;10548423;28;20079;-75
2023/03/09 19:42:07;;;;;;;25.90;23.65;;;;;;;4.73;100.00;98093.78;10582871;28;20044;-74
2023/03/09 19:47:09;;;;;;;26.08;23.98;;;;;;;5.05;100.00;98087.31;10585802;28;20453;-74
2023/03/09 19:52:13;;;;;;;25.25;23.10;;;;;;;4.96;100.00;98075.53;10584932;28;20039;-75
2023/03/09 19:57:15;;;;;;;25.05;22.75;;;;;;;4.74;100.00;98065.13;10583483;28;20042;-74
2023/03/09 20:02:17;;;;;;;25.65;23.55;;;;;;;4.86;100.00;98045.53;10583763;28;20036;-75
2023/03/09 20:07:19;;;;;;;24.27;22.38;;;;;;;4.73;100.00;98049.53;10578262;27;20043;-73
2023/03/09 20:12:23;;;;;;;24.73;22.73;;;;;;;4.68;100.00;98044.53;10616003;27;20039;-73
2023/03/09 20:17:24;;;;;;;24.02;22.10;;;;;;;4.41;100.00;98043.00;10595158;27;20519;-75
2023/03/09 20:22:26;;;;;;;27.80;23.38;;;;;;;4.20;100.00;98058.50;10638838;27;20042;-75
2023/03/09 20:27:29;;;;;;;28.67;25.83;;;;;;;4.23;100.00;98071.41;10608185;27;20047;-76
2023/03/09 20:32:31;;;;;;;27.25;24.75;;;;;;;4.75;100.00;98073.78;10596647;28;20163;-74
2023/03/09 20:37:32;;;;;;;31.23;26.73;;;;;;;4.57;100.00;98109.16;10578874;27;20565;-74
2023/03/09 20:42:35;;;;;;;26.80;24.48;;;;;;;4.70;100.00;98097.38;10609305;27;20474;-75
2023/03/09 20:47:37;;;;;;;28.27;24.92;;;;;;;4.61;100.00;98094.28;10606343;27;20115;-75
2023/03/09 20:52:39;;;;;;;27.80;25.15;;;;;;;4.42;100.00;98096.72;10578148;28;20111;-74
2023/03/09 20:57:42;;;;;;;25.27;23.20;;;;;;;4.40;100.00;98086.38;10597927;28;20040;-75
2023/03/09 21:02:44;;;;;;;23.48;21.58;;;;;;;4.57;100.00;98079.69;10596012;28;20043;-75
2023/03/09 21:07:46;;;;;;;26.30;23.70;;;;;;;4.58;100.00;98068.38;10596291;28;20044;-75
2023/03/09 21:12:48;;;;;;;26.35;23.92;;;;;;;4.60;100.00;98058.75;10596296;27;20039;-75
2023/03/09 21:17:51;;;;;;;28.73;25.85;;;;;;;4.33;100.00;98050.25;10591242;28;20040;-75
2023/03/09 21:22:53;;;;;;;26.25;23.70;;;;;;;4.23;100.00;98040.22;10601523;22;20043;-73
2023/03/09 21:27:55;;;;;;;27.95;24.98;;;;;;;4.41;100.00;98028.25;10589257;28;20042;-73
2023/03/09 21:32:57;;;;;;;26.08;23.80;;;;;;;4.26;100.00;98021.91;10589247;28;20408;-73
2023/03/09 21:37:58;;;;;;;27.70;25.02;;;;;;;4.09;100.00;98002.66;10589894;28;20039;-73
2023/03/09 21:43:00;;;;;;;29.98;26.85;;;;;;;4.12;100.00;98005.97;10570834;28;20039;-74
2023/03/09 21:48:04;;;;;;;30.15;27.02;;;;;;;3.92;100.00;97996.31;10588752;28;20130;-73
2023/03/09 21:53:08;;;;;;;30.63;27.35;;;;;;;3.97;100.00;97993.53;10570658;28;20114;-75
2023/03/09 21:58:13;;;;;;;29.75;26.63;;;;;;;3.80;100.00;97986.38;10570546;28;20047;-73
2023/03/09 22:03:15;;;;;;;29.17;26.17;;;;;;;3.70;100.00;97985.03;10588125;28;20119;-73
2023/03/09 22:08:17;;;;;;;25.80;23.40;;;;;;;3.66;100.00;97966.09;10590136;28;20119;-73
2023/03/09 22:13:19;;;;;;;27.35;24.80;;;;;;;3.58;100.00;97969.88;10552891;28;20114;-73
2023/03/09 22:18:20;;;;;;;27.58;24.95;;;;;;;3.64;100.00;97961.88;10569341;28;20047;-73
2023/03/09 22:23:22;;;;;;;25.88;23.30;;;;;;;3.47;100.00;97955.53;10587621;28;20086;-72
2023/03/09 22:28:24;;;;;;;24.88;22.55;;;;;;;3.64;100.00;97941.94;10570250;28;20062;-73
2023/03/09 22:33:27;;;;;;;26.92;24.27;;;;;;;3.38;100.00;97936.84;10586522;28;20040;-73
2023/03/09 22:38:37;;;;;;;25.85;23.50;;;;;;;3.43;100.00;97922.78;10586512;28;20050;-73
2023/03/09 22:43:39;;;;;;;27.38;24.85;;;;;;;3.54;100.00;97917.19;10586119;28;20046;-72
2023/03/09 22:48:41;;;;;;;27.35;24.65;;;;;;;3.45;100.00;97912.34;10586068;28;20035;-72
2023/03/09 22:53:44;;;;;;;26.30;23.70;;;;;;;3.37;100.00;97898.81;10586059;28;20050;-73
2023/03/09 22:58:46;;;;;;;26.10;23.60;;;;;;;3.61;100.00;97894.44;10586158;28;20040;-73
2023/03/09 23:03:48;;;;;;;27.38;24.42;;;;;;;3.52;100.00;97887.84;10568627;28;20035;-73
2023/03/09 23:08:51;;;;;;;29.35;25.20;;;;;;;3.59;100.00;97865.94;10586657;28;20126;-73
2023/03/09 23:13:53;;;;;;;26.15;23.58;;;;;;;3.50;100.00;97863.69;10585583;28;20043;-73